createdAt,value
2019-04-04T00:01:30.720Z,67.00
2019-04-04T00:04:10.201Z,67.70
2019-04-04T00:06:41.375Z,66.90
2019-04-04T00:09:15.526Z,66.00
2019-04-04T00:11:46.459Z,65.70
2019-04-04T00:14:17.245Z,67.10
2019-04-04T00:16:48.854Z,67.60
2019-04-04T00:19:21.516Z,67.50
2019-04-04T00:21:52.640Z,68.00
2019-04-04T00:24:26.465Z,67.90
2019-04-04T00:26:57.565Z,69.10
2019-04-04T00:29:29.284Z,69.30
2019-04-04T00:32:00.087Z,68.70
2019-04-04T00:34:30.890Z,68.80
2019-04-04T00:37:04.398Z,68.70
2019-04-04T00:39:34.899Z,67.40
2019-04-04T00:42:05.637Z,67.20
2019-04-04T00:44:37.451Z,68.00
2019-04-04T00:47:09.083Z,69.10
2019-04-04T00:49:46.344Z,69.80
2019-04-04T00:52:17.946Z,70.40
2019-04-04T00:54:48.582Z,68.70
2019-04-04T00:57:21.976Z,67.90
2019-04-04T00:59:53.594Z,67.40
2019-04-04T01:02:27.233Z,68.00
2019-04-04T01:04:57.076Z,67.80
2019-04-04T01:07:35.759Z,67.60
2019-04-04T01:10:07.862Z,67.10
2019-04-04T01:12:38.756Z,68.20
2019-04-04T01:15:09.602Z,68.00
2019-04-04T01:17:40.583Z,68.20
2019-04-04T01:20:11.667Z,69.10
2019-04-04T01:22:42.379Z,72.80
2019-04-04T01:25:13.145Z,70.20
2019-04-04T01:27:43.788Z,69.60
2019-04-04T01:30:14.810Z,74.30
2019-04-04T01:32:46.256Z,74.90
2019-04-04T01:35:18.081Z,74.10
2019-04-04T01:37:48.957Z,73.30
2019-04-04T01:40:19.940Z,71.00
2019-04-04T01:42:57.213Z,69.90
2019-04-04T01:45:28.472Z,71.00
2019-04-04T01:47:59.349Z,70.70
2019-04-04T01:50:37.638Z,70.60
2019-04-04T01:53:08.401Z,71.00
2019-04-04T01:55:39.103Z,70.90
2019-04-04T01:58:12.028Z,72.60
2019-04-04T02:00:44.027Z,73.00
2019-04-04T02:03:15.711Z,72.40
2019-04-04T02:05:49.695Z,73.30
2019-04-04T02:08:20.713Z,72.40
2019-04-04T02:10:51.437Z,72.70
2019-04-04T02:13:22.169Z,74.20
2019-04-04T02:15:53.017Z,74.40
2019-04-04T02:18:24.881Z,74.90
2019-04-04T02:20:58.706Z,75.20
2019-04-04T02:23:31.381Z,76.30
2019-04-04T02:26:05.156Z,76.40
2019-04-04T02:28:39.643Z,74.10
2019-04-04T02:31:09.501Z,78.10
2019-04-04T02:33:41.129Z,80.80
2019-04-04T02:36:18.048Z,79.50
2019-04-04T02:39:07.648Z,76.90
2019-04-04T02:41:38.959Z,75.30
2019-04-04T02:44:09.801Z,73.70
2019-04-04T02:46:47.216Z,72.80
2019-04-04T02:49:17.968Z,72.00
2019-04-04T02:51:49.593Z,72.30
2019-04-04T02:54:24.190Z,72.50
2019-04-04T02:56:52.941Z,74.10
2019-04-04T02:59:24.083Z,74.50
2019-04-04T03:01:55.794Z,74.70
2019-04-04T03:04:26.773Z,73.90
2019-04-04T03:06:58.870Z,73.20
2019-04-04T03:09:29.612Z,73.10
2019-04-04T03:12:00.316Z,72.00
2019-04-04T03:14:30.990Z,73.20
2019-04-04T03:17:01.802Z,73.20
2019-04-04T03:19:43.814Z,76.40
2019-04-04T03:22:14.364Z,74.30
2019-04-04T03:24:46.283Z,72.80
2019-04-04T03:27:17.887Z,73.40
2019-04-04T03:29:48.908Z,73.50
2019-04-04T03:32:19.680Z,72.60
2019-04-04T03:34:51.854Z,72.90
2019-04-04T03:37:22.618Z,73.30
2019-04-04T03:39:53.639Z,72.90
2019-04-04T03:42:24.476Z,72.90
2019-04-04T03:44:55.185Z,73.50
2019-04-04T03:47:25.963Z,74.20
2019-04-04T03:49:57.935Z,76.20
2019-04-04T03:52:28.724Z,75.90
2019-04-04T03:54:59.480Z,75.00
2019-04-04T03:57:30.569Z,74.80
2019-04-04T04:00:05.918Z,74.90
2019-04-04T04:02:34.570Z,76.50
2019-04-04T04:05:16.792Z,75.70
2019-04-04T04:07:48.077Z,74.60
2019-04-04T04:10:20.659Z,75.80
2019-04-04T04:12:51.394Z,75.00
2019-04-04T04:15:22.509Z,75.60
2019-04-04T04:17:53.274Z,75.70
2019-04-04T04:20:24.080Z,76.10
2019-04-04T04:22:54.771Z,75.60
2019-04-04T04:25:25.526Z,75.60
2019-04-04T04:27:56.275Z,74.10
2019-04-04T04:30:26.944Z,75.00
2019-04-04T04:32:57.731Z,76.10
2019-04-04T04:35:28.753Z,75.20
2019-04-04T04:38:00.268Z,76.10
2019-04-04T04:40:31.036Z,75.70
2019-04-04T04:43:02.515Z,75.30
2019-04-04T04:45:35.283Z,76.80
2019-04-04T04:48:07.081Z,77.80
2019-04-04T04:50:40.099Z,80.00
2019-04-04T04:53:10.924Z,79.30
2019-04-04T04:55:52.065Z,77.50
2019-04-04T04:58:22.835Z,77.00
2019-04-04T05:00:53.693Z,76.00
2019-04-04T05:03:30.726Z,80.20
2019-04-04T05:06:03.333Z,82.00
2019-04-04T05:08:39.032Z,80.80
2019-04-04T05:11:14.452Z,81.00
2019-04-04T05:13:44.299Z,79.60
2019-04-04T05:16:16.899Z,79.60
2019-04-04T05:18:48.209Z,78.10
2019-04-04T05:21:24.761Z,78.20
2019-04-04T05:23:51.461Z,79.70
2019-04-04T05:26:23.803Z,79.40
2019-04-04T05:28:56.974Z,77.20
2019-04-04T05:31:28.341Z,77.60
2019-04-04T05:34:00.523Z,79.80
2019-04-04T05:36:36.046Z,80.40
2019-04-04T05:39:06.882Z,80.40
2019-04-04T05:41:37.609Z,80.10
2019-04-04T05:44:09.961Z,79.40
2019-04-04T05:46:40.847Z,78.10
2019-04-04T05:49:11.636Z,78.00
2019-04-04T05:51:42.293Z,78.70
2019-04-04T05:54:14.295Z,79.20
2019-04-04T05:56:48.589Z,77.80
2019-04-04T05:59:18.780Z,77.60
2019-04-04T06:01:54.804Z,77.10
2019-04-04T06:04:25.858Z,78.90
2019-04-04T06:06:56.653Z,78.60
2019-04-04T06:09:27.409Z,79.40
2019-04-04T06:11:58.329Z,79.60
2019-04-04T06:14:31.440Z,79.30
2019-04-04T06:17:03.185Z,80.00
2019-04-04T06:19:34.290Z,79.80
2019-04-04T06:22:52.005Z,79.50
2019-04-04T06:26:12.846Z,79.50
2019-04-04T08:19:37.483Z,75.80
2019-04-04T08:22:14.106Z,70.90
2019-04-04T08:30:54.654Z,71.20
2019-04-04T08:33:26.840Z,70.60
2019-04-04T08:36:06.173Z,68.80
2019-04-04T08:39:02.418Z,69.00
2019-04-04T08:42:48.709Z,68.50
2019-04-04T08:45:20.385Z,67.20
2019-04-04T08:47:52.710Z,70.10
2019-04-04T08:50:23.774Z,68.50
2019-04-04T08:53:01.475Z,68.70
2019-04-04T08:55:33.019Z,68.90
2019-04-04T08:58:05.615Z,70.80
2019-04-04T09:00:36.519Z,68.00
2019-04-04T09:03:08.848Z,62.60
2019-04-04T09:05:42.632Z,63.50
2019-04-04T09:08:14.747Z,63.30
2019-04-04T09:10:45.629Z,66.90
2019-04-04T09:13:16.704Z,69.20
2019-04-04T09:15:47.569Z,67.70
2019-04-04T09:18:18.393Z,65.70
2019-04-04T09:20:49.463Z,64.70
2019-04-04T09:23:20.730Z,67.60
2019-04-04T09:26:04.968Z,67.20
2019-04-04T09:28:25.826Z,67.80
2019-04-04T09:30:56.965Z,65.00
2019-04-04T09:33:27.929Z,66.90
2019-04-04T09:36:07.918Z,67.10
2019-04-04T09:38:41.115Z,65.00
2019-04-04T09:41:12.041Z,66.70
2019-04-04T09:43:43.034Z,65.20
2019-04-04T09:46:14.878Z,63.50
2019-04-04T09:48:48.712Z,63.30
2019-04-04T09:51:19.721Z,61.40
2019-04-04T09:53:53.185Z,65.10
2019-04-04T09:56:23.749Z,62.30
2019-04-04T09:58:55.169Z,62.90
2019-04-04T10:01:26.818Z,62.90
2019-04-04T10:03:58.629Z,61.20
2019-04-04T10:06:34.817Z,62.50
2019-04-04T10:09:15.830Z,62.20
2019-04-04T10:12:58.067Z,60.50
2019-04-04T10:15:29.008Z,58.90
2019-04-04T10:18:05.041Z,57.50
2019-04-04T10:20:38.047Z,58.40
2019-04-04T10:23:09.212Z,55.00
2019-04-04T10:25:44.674Z,58.60
2019-04-04T10:28:19.632Z,52.80
2019-04-04T10:30:51.706Z,54.60
2019-04-04T10:33:29.469Z,51.80
2019-04-04T10:39:53.772Z,50.40
2019-04-04T10:42:27.127Z,43.50
2019-04-04T10:45:08.537Z,44.60
2019-04-04T10:47:39.955Z,42.60
2019-04-04T10:50:16.672Z,46.20
2019-04-04T10:57:27.786Z,39.40
2019-04-04T11:03:49.745Z,35.20
2019-04-04T11:06:20.604Z,37.10
2019-04-04T11:08:52.111Z,34.20
2019-04-04T11:11:27.048Z,29.50
2019-04-04T11:13:58.309Z,31.90
2019-04-04T11:16:34.131Z,30.30
2019-04-04T11:19:05.751Z,28.90
2019-04-04T11:21:49.813Z,34.60
2019-04-04T11:24:23.736Z,32.40
2019-04-04T11:27:19.231Z,29.90
2019-04-04T11:40:37.069Z,34.90
2019-04-04T11:43:43.265Z,36.30
2019-04-04T11:46:51.109Z,38.60
2019-04-04T11:49:24.573Z,37.00
2019-04-04T11:55:16.845Z,33.30
2019-04-04T12:00:28.147Z,37.00
2019-04-04T12:03:03.236Z,36.60
2019-04-04T12:05:37.120Z,36.70
2019-04-04T12:08:09.933Z,38.00
2019-04-04T12:10:44.394Z,37.70
2019-04-04T12:14:09.721Z,38.60
2019-04-04T12:16:55.218Z,37.90
2019-04-04T12:19:40.787Z,38.80
2019-04-04T12:22:14.762Z,37.60
2019-04-04T12:24:55.594Z,38.20
2019-04-04T12:27:29.611Z,37.70
2019-04-04T12:30:20.667Z,37.20
2019-04-04T12:32:52.017Z,36.20
2019-04-04T12:35:33.971Z,35.30
2019-04-04T12:38:14.552Z,35.60
2019-04-04T12:40:46.595Z,37.10
2019-04-04T12:43:21.732Z,35.60
2019-04-04T12:45:54.786Z,35.40
2019-04-04T12:48:29.186Z,36.10
2019-04-04T12:51:25.645Z,37.90
2019-04-04T12:53:59.753Z,38.20
2019-04-04T12:56:35.831Z,38.90
2019-04-04T12:59:38.341Z,36.00
2019-04-04T13:03:13.528Z,37.10
2019-04-04T13:05:51.059Z,35.50
2019-04-04T13:10:11.472Z,36.40
2019-04-04T13:12:42.688Z,34.90
2019-04-04T13:18:20.809Z,34.20
2019-04-04T13:29:54.063Z,30.50
2019-04-04T13:32:39.587Z,30.90
2019-04-04T13:39:14.892Z,31.60
2019-04-04T13:42:07.689Z,31.90
2019-04-04T13:45:15.143Z,35.10
2019-04-04T13:47:46.906Z,30.40
2019-04-04T13:50:21.034Z,30.60
2019-04-04T13:52:51.967Z,32.20
2019-04-04T13:55:25.134Z,31.80
2019-04-04T13:57:56.346Z,31.80
2019-04-04T14:00:28.704Z,31.80
2019-04-04T14:02:59.955Z,31.00
2019-04-04T14:05:31.891Z,29.30
2019-04-04T14:08:02.936Z,29.30
2019-04-04T14:10:36.159Z,30.70
2019-04-04T14:13:12.063Z,29.80
2019-04-04T14:15:44.820Z,28.90
2019-04-04T14:18:23.551Z,29.00
2019-04-04T14:21:05.490Z,28.90
2019-04-04T14:23:38.126Z,30.10
2019-04-04T14:26:08.789Z,30.30
2019-04-04T14:28:42.508Z,31.30
2019-04-04T14:31:13.433Z,31.70
2019-04-04T14:33:46.841Z,31.30
2019-04-04T14:36:19.765Z,31.10
2019-04-04T14:38:53.230Z,31.20
2019-04-04T14:41:51.748Z,31.70
2019-04-04T14:53:14.574Z,34.90
2019-04-04T14:56:04.755Z,37.50
2019-04-04T14:58:45.131Z,40.20
2019-04-04T15:01:17.570Z,41.40
2019-04-04T15:03:51.800Z,42.40
2019-04-04T15:06:27.664Z,42.20
2019-04-04T15:09:11.006Z,42.60
2019-04-04T15:11:42.426Z,43.80
2019-04-04T15:14:14.999Z,44.20
2019-04-04T15:16:48.181Z,44.00
2019-04-04T15:19:20.019Z,43.60
2019-04-04T15:21:51.837Z,44.10
2019-04-04T15:24:22.987Z,45.40
2019-04-04T15:27:00.781Z,45.40
2019-04-04T15:29:52.321Z,45.50
2019-04-04T15:32:24.355Z,44.80
2019-04-04T15:34:55.932Z,45.30
2019-04-04T15:37:26.806Z,44.70
2019-04-04T15:39:58.626Z,44.80
2019-04-04T15:42:29.456Z,45.10
2019-04-04T15:45:00.401Z,44.70
2019-04-04T15:47:31.306Z,45.00
2019-04-04T15:50:02.309Z,44.90
2019-04-04T15:52:33.063Z,44.70
2019-04-04T15:55:04.075Z,44.60
2019-04-04T15:57:35.376Z,44.70
2019-04-04T16:00:07.806Z,44.40
2019-04-04T16:02:38.888Z,44.90
2019-04-04T16:05:10.442Z,44.40
2019-04-04T16:07:41.229Z,44.90
2019-04-04T16:10:12.333Z,44.60
2019-04-04T16:12:43.133Z,44.70
2019-04-04T16:15:14.509Z,45.60
2019-04-04T16:17:45.291Z,45.60
2019-04-04T16:20:16.912Z,46.20
2019-04-04T16:22:48.195Z,45.90
2019-04-04T16:25:19.136Z,45.20
2019-04-04T16:27:49.866Z,45.30
2019-04-04T16:30:21.004Z,45.70
2019-04-04T16:32:52.141Z,45.90
2019-04-04T16:35:23.065Z,45.90
2019-04-04T16:37:58.554Z,46.30
2019-04-04T16:40:29.374Z,46.70
2019-04-04T16:43:00.285Z,47.10
2019-04-04T16:45:31.591Z,47.10
2019-04-04T16:48:02.433Z,47.10
2019-04-04T16:50:33.305Z,47.50
2019-04-04T16:53:04.627Z,48.00
2019-04-04T16:55:36.142Z,48.20
2019-04-04T16:58:07.425Z,48.30
2019-04-04T17:00:38.813Z,48.50
2019-04-04T17:03:09.677Z,48.60
2019-04-04T17:05:42.772Z,48.30
2019-04-04T17:08:14.838Z,48.70
2019-04-04T17:10:45.712Z,48.40
2019-04-04T17:13:19.721Z,48.40
2019-04-04T17:15:50.433Z,48.60
2019-04-04T17:18:21.268Z,48.60
2019-04-04T17:20:52.025Z,48.40
2019-04-04T17:23:22.764Z,48.40
2019-04-04T17:25:53.806Z,48.80
2019-04-04T17:28:24.818Z,48.60
2019-04-04T17:30:55.631Z,48.90
2019-04-04T17:33:26.576Z,49.00
2019-04-04T17:36:01.305Z,48.60
2019-04-04T17:38:32.423Z,47.80
2019-04-04T17:41:09.957Z,48.60
2019-04-04T17:43:41.281Z,48.80
2019-04-04T17:46:14.189Z,49.20
2019-04-04T17:48:46.062Z,49.40
2019-04-04T17:51:23.848Z,49.90
2019-04-04T17:53:54.749Z,50.10
2019-04-04T17:56:26.046Z,50.50
2019-04-04T17:58:57.735Z,50.50
2019-04-04T18:01:48.022Z,50.80
2019-04-04T18:04:19.037Z,50.70
2019-04-04T18:06:49.728Z,50.80
2019-04-04T18:09:31.202Z,50.80
2019-04-04T18:11:52.890Z,51.00
2019-04-04T18:14:23.748Z,51.00
2019-04-04T18:16:55.402Z,51.70
2019-04-04T18:19:26.208Z,51.50
2019-04-04T18:21:57.075Z,51.60
2019-04-04T18:24:28.162Z,51.50
2019-04-04T18:27:00.659Z,51.60
2019-04-04T18:29:31.304Z,51.10
2019-04-04T18:32:02.155Z,51.50
2019-04-04T18:34:32.961Z,51.40
2019-04-04T18:37:05.164Z,51.10
2019-04-04T18:39:37.224Z,51.00
2019-04-04T18:42:08.110Z,51.10
2019-04-04T18:44:39.723Z,51.20
2019-04-04T18:47:10.944Z,51.00
2019-04-04T18:49:42.059Z,53.20
2019-04-04T18:52:13.952Z,53.50
2019-04-04T18:54:44.710Z,54.00
2019-04-04T18:57:15.462Z,54.00
2019-04-04T18:59:46.304Z,55.60
2019-04-04T19:02:17.027Z,55.50
2019-04-04T19:04:48.547Z,57.00
2019-04-04T19:07:20.414Z,56.50
2019-04-04T19:09:52.679Z,56.40
2019-04-04T19:12:23.509Z,57.70
2019-04-04T19:15:00.744Z,59.30
2019-04-04T19:17:31.755Z,59.50
2019-04-04T19:20:03.225Z,57.90
2019-04-04T19:22:33.954Z,60.70
2019-04-04T19:25:05.103Z,61.70
2019-04-04T19:27:35.836Z,60.00
2019-04-04T19:30:09.002Z,63.30
2019-04-04T19:32:39.646Z,61.40
2019-04-04T19:35:11.030Z,62.70
2019-04-04T19:37:41.717Z,63.10
2019-04-04T19:40:12.814Z,61.60
2019-04-04T19:42:43.533Z,62.60
2019-04-04T19:45:15.851Z,62.10
2019-04-04T19:47:46.743Z,61.90
2019-04-04T19:50:17.901Z,63.80
2019-04-04T19:52:48.706Z,62.50
2019-04-04T19:55:19.362Z,62.20
2019-04-04T19:57:50.319Z,64.60
2019-04-04T20:00:21.359Z,64.60
2019-04-04T20:02:52.064Z,65.30
2019-04-04T20:05:23.052Z,64.60
2019-04-04T20:07:53.736Z,64.50
2019-04-04T20:10:24.358Z,65.20
2019-04-04T20:12:55.460Z,66.20
2019-04-04T20:15:26.121Z,64.80
2019-04-04T20:17:56.822Z,64.10
2019-04-04T20:20:27.512Z,66.20
2019-04-04T20:22:58.332Z,66.30
2019-04-04T20:25:29.029Z,66.70
2019-04-04T20:28:01.657Z,65.70
2019-04-04T20:30:39.731Z,66.20
2019-04-04T20:33:14.447Z,67.00
2019-04-04T20:35:45.152Z,68.00
2019-04-04T20:38:15.952Z,67.50
2019-04-04T20:40:46.647Z,67.70
2019-04-04T20:43:17.462Z,67.50
2019-04-04T20:45:48.289Z,69.40
2019-04-04T20:48:18.998Z,69.10
2019-04-04T20:50:49.988Z,70.50
2019-04-04T20:53:22.112Z,70.10
2019-04-04T20:55:53.147Z,69.10
2019-04-04T20:58:23.821Z,70.70
2019-04-04T21:00:54.591Z,70.90
2019-04-04T21:03:25.273Z,69.40
2019-04-04T21:05:55.983Z,68.70
2019-04-04T21:08:26.695Z,68.90
2019-04-04T21:10:57.409Z,69.50
2019-04-04T21:13:28.496Z,71.10
2019-04-04T21:15:59.197Z,71.80
2019-04-04T21:18:29.851Z,71.40
2019-04-04T21:21:00.581Z,71.00
2019-04-04T21:23:31.571Z,72.10
2019-04-04T21:26:02.288Z,71.40
2019-04-04T21:28:32.951Z,71.60
2019-04-04T21:31:04.094Z,72.10
2019-04-04T21:33:37.458Z,71.00
2019-04-04T21:36:08.123Z,71.10
2019-04-04T21:38:41.966Z,72.80
2019-04-04T21:41:12.599Z,70.30
2019-04-04T21:43:44.052Z,70.20
2019-04-04T21:46:14.709Z,69.10
2019-04-04T21:48:45.332Z,68.00
2019-04-04T21:51:16.051Z,68.30
2019-04-04T21:53:46.699Z,67.00
2019-04-04T21:56:22.232Z,67.60
2019-04-04T21:58:52.986Z,67.90
2019-04-04T22:01:23.650Z,66.80
2019-04-04T22:03:54.489Z,70.50
2019-04-04T22:06:25.139Z,68.00
2019-04-04T22:08:55.899Z,66.50
2019-04-04T22:11:26.609Z,65.30
2019-04-04T22:13:57.424Z,68.00
2019-04-04T22:16:28.572Z,70.80
2019-04-04T22:18:59.326Z,70.00
2019-04-04T22:21:30.089Z,70.70
2019-04-04T22:24:01.987Z,70.00
2019-04-04T22:26:32.698Z,73.20
2019-04-04T22:29:04.458Z,70.80
2019-04-04T22:31:35.195Z,70.30
2019-04-04T22:34:06.334Z,68.90
2019-04-04T22:36:36.990Z,70.10
2019-04-04T22:39:09.278Z,69.70
2019-04-04T22:41:40.079Z,67.80
2019-04-04T22:44:10.850Z,67.80
2019-04-04T22:46:42.571Z,70.30
2019-04-04T22:49:15.216Z,70.80
2019-04-04T22:51:46.738Z,71.20
2019-04-04T22:54:18.045Z,71.40
2019-04-04T22:56:48.714Z,72.80
2019-04-04T22:59:20.906Z,73.20
2019-04-04T23:01:51.745Z,72.60
2019-04-04T23:04:23.318Z,71.60
2019-04-04T23:06:54.138Z,69.60
2019-04-04T23:09:24.831Z,68.70
2019-04-04T23:11:55.424Z,67.70
2019-04-04T23:14:26.611Z,66.40
2019-04-04T23:16:57.818Z,66.40
2019-04-04T23:19:30.603Z,66.00
2019-04-04T23:22:02.190Z,66.10
2019-04-04T23:24:35.221Z,69.40
2019-04-04T23:27:15.415Z,72.40
2019-04-04T23:29:46.246Z,72.50
2019-04-04T23:32:17.038Z,73.90
2019-04-04T23:35:02.596Z,73.70
2019-04-04T23:37:33.935Z,71.40
2019-04-04T23:40:05.655Z,69.30
2019-04-04T23:42:38.287Z,67.90
2019-04-04T23:45:14.112Z,70.80
2019-04-04T23:47:47.489Z,72.90
2019-04-04T23:50:19.308Z,75.20
2019-04-04T23:52:50.501Z,74.50
2019-04-04T23:55:25.194Z,74.40
2019-04-04T23:58:04.567Z,75.20
